Sainte-Anne-Du-Lac, Canada
Current Conditions -  °F | °C
As of 11:00 AM on Thursday 29 Jan 2015 (Local Time) from CYND Reporting Station
Overcast Overcast  
Wind Chill: -2°   Ceiling: 12000
Heat Index: 10°   Visibility: 15mi
Dew Point:   Wind: 9mph
Humidity: 62%   Direction: 100°E
Pressure: 30.13"   Gusts: NA
Location:  46.87°N, 75.32°W
Report Text: CYND 291600Z 10008KT 15SM OVC120 M12/M18 A3013 RMK AC8 PRESFR SLP210
Loading
Personal Weather Stations






























Interactive Weather Map New forecast layout! Learn more

10-Day Weather Forecast

Advertisements
Track Severe Weather on mobile